sensor_id;sensor_type;location;lat;lon;timestamp;temperature;humidity
32660;DHT22;19064;47.912;12.308;2023-05-13T00:01:36;9.70;99.90
32660;DHT22;19064;47.912;12.308;2023-05-13T00:04:03;9.70;99.90
32660;DHT22;19064;47.912;12.308;2023-05-13T00:06:31;9.60;99.90
32660;DHT22;19064;47.912;12.308;2023-05-13T00:08:58;9.60;99.90
32660;DHT22;19064;47.912;12.308;2023-05-13T00:11:24;9.60;99.90
32660;DHT22;19064;47.912;12.308;2023-05-13T00:13:51;9.60;99.90
32660;DHT22;19064;47.912;12.308;2023-05-13T00:16:19;9.60;99.90
32660;DHT22;19064;47.912;12.308;2023-05-13T00:18:48;9.70;99.90
32660;DHT22;19064;47.912;12.308;2023-05-13T00:21:15;9.60;99.90
32660;DHT22;19064;47.912;12.308;2023-05-13T00:23:42;9.60;99.90
32660;DHT22;19064;47.912;12.308;2023-05-13T00:26:09;9.50;99.90
32660;DHT22;19064;47.912;12.308;2023-05-13T00:28:38;9.50;99.90
32660;DHT22;19064;47.912;12.308;2023-05-13T00:31:05;9.60;99.90
32660;DHT22;19064;47.912;12.308;2023-05-13T00:33:33;9.60;99.90
32660;DHT22;19064;47.912;12.308;2023-05-13T00:36:00;9.60;99.90
32660;DHT22;19064;47.912;12.308;2023-05-13T00:38:26;9.60;99.90
32660;DHT22;19064;47.912;12.308;2023-05-13T00:40:53;9.60;99.90
32660;DHT22;19064;47.912;12.308;2023-05-13T00:43:20;9.60;99.90
32660;DHT22;19064;47.912;12.308;2023-05-13T00:45:47;9.60;99.90
32660;DHT22;19064;47.912;12.308;2023-05-13T00:48:14;9.60;99.90
32660;DHT22;19064;47.912;12.308;2023-05-13T00:50:42;9.50;99.90
32660;DHT22;19064;47.912;12.308;2023-05-13T00:53:09;9.60;99.90
32660;DHT22;19064;47.912;12.308;2023-05-13T00:55:40;9.50;99.90
32660;DHT22;19064;47.912;12.308;2023-05-13T00:58:07;9.60;99.90
32660;DHT22;19064;47.912;12.308;2023-05-13T01:00:35;9.60;99.90
32660;DHT22;19064;47.912;12.308;2023-05-13T01:03:07;9.60;99.90
32660;DHT22;19064;47.912;12.308;2023-05-13T01:05:41;9.60;99.90
32660;DHT22;19064;47.912;12.308;2023-05-13T01:08:26;9.50;99.90
32660;DHT22;19064;47.912;12.308;2023-05-13T01:10:58;9.60;99.90
32660;DHT22;19064;47.912;12.308;2023-05-13T01:13:30;9.50;99.90
32660;DHT22;19064;47.912;12.308;2023-05-13T01:16:02;9.50;99.90
32660;DHT22;19064;47.912;12.308;2023-05-13T01:18:35;9.50;99.90
32660;DHT22;19064;47.912;12.308;2023-05-13T01:21:04;9.50;99.90
32660;DHT22;19064;47.912;12.308;2023-05-13T01:23:33;9.50;99.90
32660;DHT22;19064;47.912;12.308;2023-05-13T01:25:59;9.60;99.90
32660;DHT22;19064;47.912;12.308;2023-05-13T01:28:26;9.60;99.90
32660;DHT22;19064;47.912;12.308;2023-05-13T01:30:53;9.70;99.90
32660;DHT22;19064;47.912;12.308;2023-05-13T01:33:21;9.70;99.90
32660;DHT22;19064;47.912;12.308;2023-05-13T01:35:49;9.60;99.90
32660;DHT22;19064;47.912;12.308;2023-05-13T01:38:17;9.60;99.90
32660;DHT22;19064;47.912;12.308;2023-05-13T01:40:47;9.60;99.90
32660;DHT22;19064;47.912;12.308;2023-05-13T01:43:13;9.60;99.90
32660;DHT22;19064;47.912;12.308;2023-05-13T01:45:40;9.60;99.90
32660;DHT22;19064;47.912;12.308;2023-05-13T01:48:07;9.60;99.90
32660;DHT22;19064;47.912;12.308;2023-05-13T01:50:34;9.60;99.90
32660;DHT22;19064;47.912;12.308;2023-05-13T01:53:00;9.60;99.90
32660;DHT22;19064;47.912;12.308;2023-05-13T01:55:27;9.60;99.90
32660;DHT22;19064;47.912;12.308;2023-05-13T01:57:55;9.50;99.90
32660;DHT22;19064;47.912;12.308;2023-05-13T02:00:22;9.50;99.90
32660;DHT22;19064;47.912;12.308;2023-05-13T02:02:49;9.50;99.90
32660;DHT22;19064;47.912;12.308;2023-05-13T02:05:16;9.50;99.90
32660;DHT22;19064;47.912;12.308;2023-05-13T02:07:42;9.50;99.90
32660;DHT22;19064;47.912;12.308;2023-05-13T02:10:10;9.50;99.90
32660;DHT22;19064;47.912;12.308;2023-05-13T02:12:37;9.50;99.90
32660;DHT22;19064;47.912;12.308;2023-05-13T02:15:06;9.60;99.90
32660;DHT22;19064;47.912;12.308;2023-05-13T02:17:33;9.60;99.90
32660;DHT22;19064;47.912;12.308;2023-05-13T02:19:59;9.60;99.90
32660;DHT22;19064;47.912;12.308;2023-05-13T02:22:26;9.60;99.90
32660;DHT22;19064;47.912;12.308;2023-05-13T02:24:53;9.70;99.90
32660;DHT22;19064;47.912;12.308;2023-05-13T02:27:20;9.70;99.90
32660;DHT22;19064;47.912;12.308;2023-05-13T02:29:48;9.70;99.90
32660;DHT22;19064;47.912;12.308;2023-05-13T02:32:16;9.70;99.90
32660;DHT22;19064;47.912;12.308;2023-05-13T02:34:42;9.60;99.90
32660;DHT22;19064;47.912;12.308;2023-05-13T02:37:09;9.60;99.90
32660;DHT22;19064;47.912;12.308;2023-05-13T02:39:36;9.60;99.90
32660;DHT22;19064;47.912;12.308;2023-05-13T02:42:04;9.60;99.90
32660;DHT22;19064;47.912;12.308;2023-05-13T02:44:30;9.50;99.90
32660;DHT22;19064;47.912;12.308;2023-05-13T02:46:57;9.50;99.90
32660;DHT22;19064;47.912;12.308;2023-05-13T02:49:25;9.50;99.90
32660;DHT22;19064;47.912;12.308;2023-05-13T02:51:52;9.50;99.90
32660;DHT22;19064;47.912;12.308;2023-05-13T02:54:19;9.50;99.90
32660;DHT22;19064;47.912;12.308;2023-05-13T02:56:45;9.40;99.90
32660;DHT22;19064;47.912;12.308;2023-05-13T02:59:12;9.50;99.90
32660;DHT22;19064;47.912;12.308;2023-05-13T03:01:39;9.50;99.90
32660;DHT22;19064;47.912;12.308;2023-05-13T03:04:06;9.50;99.90
32660;DHT22;19064;47.912;12.308;2023-05-13T03:06:34;9.50;99.90
32660;DHT22;19064;47.912;12.308;2023-05-13T03:09:00;9.50;99.90
32660;DHT22;19064;47.912;12.308;2023-05-13T03:11:27;9.50;99.90
32660;DHT22;19064;47.912;12.308;2023-05-13T03:13:54;9.50;99.90
32660;DHT22;19064;47.912;12.308;2023-05-13T03:16:21;9.40;99.90
32660;DHT22;19064;47.912;12.308;2023-05-13T03:18:47;9.40;99.90
32660;DHT22;19064;47.912;12.308;2023-05-13T03:21:14;9.40;99.90
32660;DHT22;19064;47.912;12.308;2023-05-13T03:23:42;9.40;99.90
32660;DHT22;19064;47.912;12.308;2023-05-13T03:26:09;9.40;99.90
32660;DHT22;19064;47.912;12.308;2023-05-13T03:28:36;9.40;99.90
32660;DHT22;19064;47.912;12.308;2023-05-13T03:31:02;9.40;99.90
32660;DHT22;19064;47.912;12.308;2023-05-13T03:33:30;9.40;99.90
32660;DHT22;19064;47.912;12.308;2023-05-13T03:35:56;9.40;99.90
32660;DHT22;19064;47.912;12.308;2023-05-13T03:38:23;9.40;99.90
32660;DHT22;19064;47.912;12.308;2023-05-13T03:40:51;9.50;99.90
32660;DHT22;19064;47.912;12.308;2023-05-13T03:43:18;9.50;99.90
32660;DHT22;19064;47.912;12.308;2023-05-13T03:45:45;9.40;99.90
32660;DHT22;19064;47.912;12.308;2023-05-13T03:48:13;9.50;99.90
32660;DHT22;19064;47.912;12.308;2023-05-13T03:50:42;9.40;99.90
32660;DHT22;19064;47.912;12.308;2023-05-13T03:53:09;9.50;99.90
32660;DHT22;19064;47.912;12.308;2023-05-13T03:55:36;9.50;99.90
32660;DHT22;19064;47.912;12.308;2023-05-13T03:58:12;9.50;99.90
32660;DHT22;19064;47.912;12.308;2023-05-13T04:00:40;9.50;99.90
32660;DHT22;19064;47.912;12.308;2023-05-13T04:03:07;9.50;99.90
32660;DHT22;19064;47.912;12.308;2023-05-13T04:05:33;9.40;99.90
32660;DHT22;19064;47.912;12.308;2023-05-13T04:08:00;9.40;99.90
32660;DHT22;19064;47.912;12.308;2023-05-13T04:10:27;9.40;99.90
32660;DHT22;19064;47.912;12.308;2023-05-13T04:12:54;9.50;99.90
32660;DHT22;19064;47.912;12.308;2023-05-13T04:15:22;9.50;99.90
32660;DHT22;19064;47.912;12.308;2023-05-13T04:17:49;9.40;99.90
32660;DHT22;19064;47.912;12.308;2023-05-13T04:20:16;9.40;99.90
32660;DHT22;19064;47.912;12.308;2023-05-13T04:22:42;9.40;99.90
32660;DHT22;19064;47.912;12.308;2023-05-13T04:25:09;9.40;99.90
32660;DHT22;19064;47.912;12.308;2023-05-13T04:27:36;9.40;99.90
32660;DHT22;19064;47.912;12.308;2023-05-13T04:30:04;9.40;99.90
32660;DHT22;19064;47.912;12.308;2023-05-13T04:32:32;9.50;99.90
32660;DHT22;19064;47.912;12.308;2023-05-13T04:34:59;9.40;99.90
32660;DHT22;19064;47.912;12.308;2023-05-13T04:37:26;9.40;99.90
32660;DHT22;19064;47.912;12.308;2023-05-13T04:39:52;9.40;99.90
32660;DHT22;19064;47.912;12.308;2023-05-13T04:42:19;9.50;99.90
32660;DHT22;19064;47.912;12.308;2023-05-13T04:44:46;9.60;99.90
32660;DHT22;19064;47.912;12.308;2023-05-13T04:47:14;9.60;99.90
32660;DHT22;19064;47.912;12.308;2023-05-13T04:49:42;9.70;99.90
32660;DHT22;19064;47.912;12.308;2023-05-13T04:52:08;9.60;99.90
32660;DHT22;19064;47.912;12.308;2023-05-13T04:54:37;9.60;99.90
32660;DHT22;19064;47.912;12.308;2023-05-13T04:57:05;9.60;99.90
32660;DHT22;19064;47.912;12.308;2023-05-13T04:59:31;9.60;99.90
32660;DHT22;19064;47.912;12.308;2023-05-13T05:01:59;9.50;99.90
32660;DHT22;19064;47.912;12.308;2023-05-13T05:04:26;9.50;99.90
32660;DHT22;19064;47.912;12.308;2023-05-13T05:06:54;9.50;99.90
32660;DHT22;19064;47.912;12.308;2023-05-13T05:09:21;9.50;99.90
32660;DHT22;19064;47.912;12.308;2023-05-13T05:11:48;9.50;99.90
32660;DHT22;19064;47.912;12.308;2023-05-13T05:14:15;9.50;99.90
32660;DHT22;19064;47.912;12.308;2023-05-13T05:16:42;9.60;99.90
32660;DHT22;19064;47.912;12.308;2023-05-13T05:19:08;9.60;99.90
32660;DHT22;19064;47.912;12.308;2023-05-13T05:21:35;9.50;99.90
32660;DHT22;19064;47.912;12.308;2023-05-13T05:24:05;9.50;99.90
32660;DHT22;19064;47.912;12.308;2023-05-13T05:26:32;9.50;99.90
32660;DHT22;19064;47.912;12.308;2023-05-13T05:28:59;9.60;99.90
32660;DHT22;19064;47.912;12.308;2023-05-13T05:31:26;9.50;99.90
32660;DHT22;19064;47.912;12.308;2023-05-13T05:33:53;9.60;99.90
32660;DHT22;19064;47.912;12.308;2023-05-13T05:36:20;9.60;99.90
32660;DHT22;19064;47.912;12.308;2023-05-13T05:38:47;9.60;99.90
32660;DHT22;19064;47.912;12.308;2023-05-13T05:41:16;9.50;99.90
32660;DHT22;19064;47.912;12.308;2023-05-13T05:43:42;9.50;99.90
32660;DHT22;19064;47.912;12.308;2023-05-13T05:46:09;9.60;99.90
32660;DHT22;19064;47.912;12.308;2023-05-13T05:48:36;9.60;99.90
32660;DHT22;19064;47.912;12.308;2023-05-13T05:51:04;9.60;99.90
32660;DHT22;19064;47.912;12.308;2023-05-13T05:53:31;9.60;99.90
32660;DHT22;19064;47.912;12.308;2023-05-13T05:55:57;9.60;99.90
32660;DHT22;19064;47.912;12.308;2023-05-13T05:58:26;9.60;99.90
32660;DHT22;19064;47.912;12.308;2023-05-13T06:00:52;9.60;99.90
32660;DHT22;19064;47.912;12.308;2023-05-13T06:03:20;9.60;99.90
32660;DHT22;19064;47.912;12.308;2023-05-13T06:05:46;9.60;99.90
32660;DHT22;19064;47.912;12.308;2023-05-13T06:08:13;9.60;99.90
32660;DHT22;19064;47.912;12.308;2023-05-13T06:10:40;9.70;99.90
32660;DHT22;19064;47.912;12.308;2023-05-13T06:13:07;9.70;99.90
32660;DHT22;19064;47.912;12.308;2023-05-13T06:15:36;9.70;99.90
32660;DHT22;19064;47.912;12.308;2023-05-13T06:18:03;9.80;99.90
32660;DHT22;19064;47.912;12.308;2023-05-13T06:20:30;9.70;99.90
32660;DHT22;19064;47.912;12.308;2023-05-13T06:22:57;9.80;99.90
32660;DHT22;19064;47.912;12.308;2023-05-13T06:25:24;9.80;99.90
32660;DHT22;19064;47.912;12.308;2023-05-13T06:27:51;9.80;99.90
32660;DHT22;19064;47.912;12.308;2023-05-13T06:30:19;9.80;99.90
32660;DHT22;19064;47.912;12.308;2023-05-13T06:32:49;9.70;99.90
32660;DHT22;19064;47.912;12.308;2023-05-13T06:35:17;9.70;99.90
32660;DHT22;19064;47.912;12.308;2023-05-13T06:37:44;9.80;99.90
32660;DHT22;19064;47.912;12.308;2023-05-13T06:40:11;9.80;99.90
32660;DHT22;19064;47.912;12.308;2023-05-13T06:42:38;9.80;99.90
32660;DHT22;19064;47.912;12.308;2023-05-13T06:45:07;9.80;99.90
32660;DHT22;19064;47.912;12.308;2023-05-13T06:47:34;9.80;99.90
32660;DHT22;19064;47.912;12.308;2023-05-13T06:50:02;9.70;99.90
32660;DHT22;19064;47.912;12.308;2023-05-13T06:52:29;9.70;99.90
32660;DHT22;19064;47.912;12.308;2023-05-13T06:54:56;9.70;99.90
32660;DHT22;19064;47.912;12.308;2023-05-13T06:57:24;9.70;99.90
32660;DHT22;19064;47.912;12.308;2023-05-13T06:59:51;9.80;99.90
32660;DHT22;19064;47.912;12.308;2023-05-13T07:02:17;9.80;99.90
32660;DHT22;19064;47.912;12.308;2023-05-13T07:04:44;9.80;99.90
32660;DHT22;19064;47.912;12.308;2023-05-13T07:07:12;9.80;99.90
32660;DHT22;19064;47.912;12.308;2023-05-13T07:09:39;9.90;99.90
32660;DHT22;19064;47.912;12.308;2023-05-13T07:12:06;10.00;99.90
32660;DHT22;19064;47.912;12.308;2023-05-13T07:14:34;10.00;99.90
32660;DHT22;19064;47.912;12.308;2023-05-13T07:17:01;10.00;99.90
32660;DHT22;19064;47.912;12.308;2023-05-13T07:19:28;10.00;99.90
32660;DHT22;19064;47.912;12.308;2023-05-13T07:21:55;10.00;99.90
32660;DHT22;19064;47.912;12.308;2023-05-13T07:24:25;9.90;99.90
32660;DHT22;19064;47.912;12.308;2023-05-13T07:26:52;10.00;99.90
32660;DHT22;19064;47.912;12.308;2023-05-13T07:29:19;10.00;99.90
32660;DHT22;19064;47.912;12.308;2023-05-13T07:31:46;10.00;99.90
32660;DHT22;19064;47.912;12.308;2023-05-13T07:34:13;10.00;99.90
32660;DHT22;19064;47.912;12.308;2023-05-13T07:36:40;10.10;99.90
32660;DHT22;19064;47.912;12.308;2023-05-13T07:39:07;10.10;99.90
32660;DHT22;19064;47.912;12.308;2023-05-13T07:41:36;10.10;99.90
32660;DHT22;19064;47.912;12.308;2023-05-13T07:44:02;10.00;99.90
32660;DHT22;19064;47.912;12.308;2023-05-13T07:46:30;10.00;99.90
32660;DHT22;19064;47.912;12.308;2023-05-13T07:48:57;10.10;99.90
32660;DHT22;19064;47.912;12.308;2023-05-13T07:51:24;10.10;99.90
32660;DHT22;19064;47.912;12.308;2023-05-13T07:53:51;10.20;99.90
32660;DHT22;19064;47.912;12.308;2023-05-13T07:56:18;10.20;99.90
32660;DHT22;19064;47.912;12.308;2023-05-13T07:58:46;10.40;99.90
32660;DHT22;19064;47.912;12.308;2023-05-13T08:01:14;10.50;99.90
32660;DHT22;19064;47.912;12.308;2023-05-13T08:03:41;10.50;99.90
32660;DHT22;19064;47.912;12.308;2023-05-13T08:06:08;10.60;99.90
32660;DHT22;19064;47.912;12.308;2023-05-13T08:08:35;10.60;99.90
32660;DHT22;19064;47.912;12.308;2023-05-13T08:11:02;10.60;99.90
32660;DHT22;19064;47.912;12.308;2023-05-13T08:13:28;10.70;99.90
32660;DHT22;19064;47.912;12.308;2023-05-13T08:15:59;10.50;99.90
32660;DHT22;19064;47.912;12.308;2023-05-13T08:18:26;10.60;99.90
32660;DHT22;19064;47.912;12.308;2023-05-13T08:20:53;10.60;99.90
32660;DHT22;19064;47.912;12.308;2023-05-13T08:23:20;10.60;99.90
32660;DHT22;19064;47.912;12.308;2023-05-13T08:25:46;10.60;99.90
32660;DHT22;19064;47.912;12.308;2023-05-13T08:28:13;10.60;99.90
32660;DHT22;19064;47.912;12.308;2023-05-13T08:30:40;10.70;99.90
32660;DHT22;19064;47.912;12.308;2023-05-13T08:33:10;10.60;99.90
32660;DHT22;19064;47.912;12.308;2023-05-13T08:35:37;10.70;99.90
32660;DHT22;19064;47.912;12.308;2023-05-13T08:38:04;10.70;99.90
32660;DHT22;19064;47.912;12.308;2023-05-13T08:40:31;10.70;99.90
32660;DHT22;19064;47.912;12.308;2023-05-13T08:43:00;10.70;99.90
32660;DHT22;19064;47.912;12.308;2023-05-13T08:45:29;10.70;99.90
32660;DHT22;19064;47.912;12.308;2023-05-13T08:47:59;10.80;99.90
32660;DHT22;19064;47.912;12.308;2023-05-13T08:50:28;10.80;99.90
32660;DHT22;19064;47.912;12.308;2023-05-13T08:52:57;10.80;99.90
32660;DHT22;19064;47.912;12.308;2023-05-13T08:55:24;10.90;99.90
32660;DHT22;19064;47.912;12.308;2023-05-13T08:57:50;11.00;99.90
32660;DHT22;19064;47.912;12.308;2023-05-13T09:00:18;11.10;99.90
32660;DHT22;19064;47.912;12.308;2023-05-13T09:02:45;11.10;99.90
32660;DHT22;19064;47.912;12.308;2023-05-13T09:05:12;11.10;99.90
32660;DHT22;19064;47.912;12.308;2023-05-13T09:07:41;11.10;99.90
32660;DHT22;19064;47.912;12.308;2023-05-13T09:10:08;11.10;99.90
32660;DHT22;19064;47.912;12.308;2023-05-13T09:12:46;11.10;99.90
32660;DHT22;19064;47.912;12.308;2023-05-13T09:15:16;11.20;99.90
32660;DHT22;19064;47.912;12.308;2023-05-13T09:17:46;11.40;99.90
32660;DHT22;19064;47.912;12.308;2023-05-13T09:20:14;11.50;99.90
32660;DHT22;19064;47.912;12.308;2023-05-13T09:22:46;11.50;99.90
32660;DHT22;19064;47.912;12.308;2023-05-13T09:25:14;11.60;99.90
32660;DHT22;19064;47.912;12.308;2023-05-13T09:27:43;11.70;99.90
32660;DHT22;19064;47.912;12.308;2023-05-13T09:30:10;11.80;99.90
32660;DHT22;19064;47.912;12.308;2023-05-13T09:32:37;11.90;99.90
32660;DHT22;19064;47.912;12.308;2023-05-13T09:35:09;12.10;99.90
32660;DHT22;19064;47.912;12.308;2023-05-13T09:37:36;12.10;99.90
32660;DHT22;19064;47.912;12.308;2023-05-13T09:40:06;12.00;99.90
32660;DHT22;19064;47.912;12.308;2023-05-13T09:42:40;12.10;99.90
32660;DHT22;19064;47.912;12.308;2023-05-13T09:45:08;12.10;99.90
32660;DHT22;19064;47.912;12.308;2023-05-13T09:47:35;12.10;99.90
32660;DHT22;19064;47.912;12.308;2023-05-13T09:50:03;12.10;99.90
32660;DHT22;19064;47.912;12.308;2023-05-13T09:52:30;12.10;99.90
32660;DHT22;19064;47.912;12.308;2023-05-13T09:54:57;12.20;99.90
32660;DHT22;19064;47.912;12.308;2023-05-13T09:57:27;12.30;99.90
32660;DHT22;19064;47.912;12.308;2023-05-13T09:59:56;12.40;99.90
32660;DHT22;19064;47.912;12.308;2023-05-13T10:02:24;12.60;99.90
32660;DHT22;19064;47.912;12.308;2023-05-13T10:04:52;12.70;99.90
32660;DHT22;19064;47.912;12.308;2023-05-13T10:07:20;12.70;99.90
32660;DHT22;19064;47.912;12.308;2023-05-13T10:09:50;12.70;99.90
32660;DHT22;19064;47.912;12.308;2023-05-13T10:12:19;12.70;99.90
32660;DHT22;19064;47.912;12.308;2023-05-13T10:14:49;12.80;99.90
32660;DHT22;19064;47.912;12.308;2023-05-13T10:17:18;13.00;99.90
32660;DHT22;19064;47.912;12.308;2023-05-13T10:19:47;12.90;99.90
32660;DHT22;19064;47.912;12.308;2023-05-13T10:22:14;13.00;99.90
32660;DHT22;19064;47.912;12.308;2023-05-13T10:24:41;12.90;99.90
32660;DHT22;19064;47.912;12.308;2023-05-13T10:27:10;12.70;99.90
32660;DHT22;19064;47.912;12.308;2023-05-13T10:29:37;12.60;99.90
32660;DHT22;19064;47.912;12.308;2023-05-13T10:32:07;12.60;99.90
32660;DHT22;19064;47.912;12.308;2023-05-13T10:34:34;12.60;99.90
32660;DHT22;19064;47.912;12.308;2023-05-13T10:37:23;12.70;99.90
32660;DHT22;19064;47.912;12.308;2023-05-13T10:40:05;12.90;99.90
32660;DHT22;19064;47.912;12.308;2023-05-13T10:42:41;12.90;99.90
32660;DHT22;19064;47.912;12.308;2023-05-13T10:45:10;13.00;99.90
32660;DHT22;19064;47.912;12.308;2023-05-13T10:47:38;13.00;99.90
32660;DHT22;19064;47.912;12.308;2023-05-13T10:50:06;12.90;99.90
32660;DHT22;19064;47.912;12.308;2023-05-13T10:52:47;12.90;99.90
32660;DHT22;19064;47.912;12.308;2023-05-13T10:55:15;13.00;99.90
32660;DHT22;19064;47.912;12.308;2023-05-13T10:58:02;13.10;99.90
32660;DHT22;19064;47.912;12.308;2023-05-13T11:00:30;13.10;99.90
32660;DHT22;19064;47.912;12.308;2023-05-13T11:03:08;13.10;99.90
32660;DHT22;19064;47.912;12.308;2023-05-13T11:05:37;13.10;99.90
32660;DHT22;19064;47.912;12.308;2023-05-13T11:08:04;13.00;99.90
32660;DHT22;19064;47.912;12.308;2023-05-13T11:10:31;13.00;99.90
32660;DHT22;19064;47.912;12.308;2023-05-13T11:13:19;13.00;99.90
32660;DHT22;19064;47.912;12.308;2023-05-13T11:15:48;13.00;99.90
32660;DHT22;19064;47.912;12.308;2023-05-13T11:18:17;13.00;99.90
32660;DHT22;19064;47.912;12.308;2023-05-13T11:20:45;13.00;99.90
32660;DHT22;19064;47.912;12.308;2023-05-13T11:23:17;13.10;99.90
32660;DHT22;19064;47.912;12.308;2023-05-13T11:25:44;13.10;99.90
32660;DHT22;19064;47.912;12.308;2023-05-13T11:28:14;13.10;99.90
32660;DHT22;19064;47.912;12.308;2023-05-13T11:30:52;13.00;99.90
32660;DHT22;19064;47.912;12.308;2023-05-13T11:33:20;12.90;99.90
32660;DHT22;19064;47.912;12.308;2023-05-13T11:35:53;12.80;99.90
32660;DHT22;19064;47.912;12.308;2023-05-13T11:38:22;12.90;99.90
32660;DHT22;19064;47.912;12.308;2023-05-13T11:40:50;12.90;99.90
32660;DHT22;19064;47.912;12.308;2023-05-13T11:43:18;13.00;99.90
32660;DHT22;19064;47.912;12.308;2023-05-13T11:45:46;12.90;99.90
32660;DHT22;19064;47.912;12.308;2023-05-13T11:48:22;12.90;99.90
32660;DHT22;19064;47.912;12.308;2023-05-13T11:50:50;12.90;99.90
32660;DHT22;19064;47.912;12.308;2023-05-13T11:53:20;13.00;99.90
32660;DHT22;19064;47.912;12.308;2023-05-13T11:55:48;13.10;99.90
32660;DHT22;19064;47.912;12.308;2023-05-13T11:58:15;13.10;99.90
32660;DHT22;19064;47.912;12.308;2023-05-13T12:00:42;13.20;99.90
32660;DHT22;19064;47.912;12.308;2023-05-13T12:03:10;13.30;99.90
32660;DHT22;19064;47.912;12.308;2023-05-13T12:05:39;13.20;99.90
32660;DHT22;19064;47.912;12.308;2023-05-13T12:08:06;13.30;99.90
32660;DHT22;19064;47.912;12.308;2023-05-13T12:10:34;13.40;99.90
32660;DHT22;19064;47.912;12.308;2023-05-13T12:13:01;13.50;99.90
32660;DHT22;19064;47.912;12.308;2023-05-13T12:15:28;13.70;99.90
32660;DHT22;19064;47.912;12.308;2023-05-13T12:17:55;13.80;99.90
32660;DHT22;19064;47.912;12.308;2023-05-13T12:20:23;13.70;99.90
32660;DHT22;19064;47.912;12.308;2023-05-13T12:22:54;13.70;99.90
32660;DHT22;19064;47.912;12.308;2023-05-13T12:25:41;13.80;99.90
32660;DHT22;19064;47.912;12.308;2023-05-13T12:28:11;13.90;99.90
32660;DHT22;19064;47.912;12.308;2023-05-13T12:30:39;14.00;99.90
32660;DHT22;19064;47.912;12.308;2023-05-13T12:33:12;13.80;99.90
32660;DHT22;19064;47.912;12.308;2023-05-13T12:35:40;13.70;99.90
32660;DHT22;19064;47.912;12.308;2023-05-13T12:38:13;13.80;99.90
32660;DHT22;19064;47.912;12.308;2023-05-13T12:40:40;13.90;99.90
32660;DHT22;19064;47.912;12.308;2023-05-13T12:43:07;14.00;99.90
32660;DHT22;19064;47.912;12.308;2023-05-13T12:45:37;14.00;99.90
32660;DHT22;19064;47.912;12.308;2023-05-13T12:48:04;14.10;99.90
32660;DHT22;19064;47.912;12.308;2023-05-13T12:50:31;14.20;99.90
32660;DHT22;19064;47.912;12.308;2023-05-13T12:52:58;14.30;99.90
32660;DHT22;19064;47.912;12.308;2023-05-13T12:55:26;14.40;99.90
32660;DHT22;19064;47.912;12.308;2023-05-13T12:57:54;14.30;99.90
32660;DHT22;19064;47.912;12.308;2023-05-13T13:00:22;14.30;99.90
32660;DHT22;19064;47.912;12.308;2023-05-13T13:02:48;14.30;99.90
32660;DHT22;19064;47.912;12.308;2023-05-13T13:05:16;14.20;99.90
32660;DHT22;19064;47.912;12.308;2023-05-13T13:07:42;14.20;99.90
32660;DHT22;19064;47.912;12.308;2023-05-13T13:10:09;14.10;99.90
32660;DHT22;19064;47.912;12.308;2023-05-13T13:12:37;14.10;99.90
32660;DHT22;19064;47.912;12.308;2023-05-13T13:15:05;14.10;99.90
32660;DHT22;19064;47.912;12.308;2023-05-13T13:17:32;14.10;99.90
32660;DHT22;19064;47.912;12.308;2023-05-13T13:19:59;14.10;99.90
32660;DHT22;19064;47.912;12.308;2023-05-13T13:22:26;14.10;99.90
32660;DHT22;19064;47.912;12.308;2023-05-13T13:24:53;14.10;99.90
32660;DHT22;19064;47.912;12.308;2023-05-13T13:27:19;14.10;99.90
32660;DHT22;19064;47.912;12.308;2023-05-13T13:29:49;14.10;99.90
32660;DHT22;19064;47.912;12.308;2023-05-13T13:32:15;14.10;99.90
32660;DHT22;19064;47.912;12.308;2023-05-13T13:34:43;14.00;99.90
32660;DHT22;19064;47.912;12.308;2023-05-13T13:37:10;14.00;99.90
32660;DHT22;19064;47.912;12.308;2023-05-13T13:39:37;14.00;99.90
32660;DHT22;19064;47.912;12.308;2023-05-13T13:42:04;14.00;99.90
32660;DHT22;19064;47.912;12.308;2023-05-13T13:44:31;14.10;99.90
32660;DHT22;19064;47.912;12.308;2023-05-13T13:46:59;14.20;99.90
32660;DHT22;19064;47.912;12.308;2023-05-13T13:49:25;14.20;99.90
32660;DHT22;19064;47.912;12.308;2023-05-13T13:51:52;14.30;99.90
32660;DHT22;19064;47.912;12.308;2023-05-13T13:54:20;14.40;99.90
32660;DHT22;19064;47.912;12.308;2023-05-13T13:56:49;14.40;99.90
32660;DHT22;19064;47.912;12.308;2023-05-13T13:59:17;14.40;99.90
32660;DHT22;19064;47.912;12.308;2023-05-13T14:01:47;14.40;99.90
32660;DHT22;19064;47.912;12.308;2023-05-13T14:04:17;14.40;99.90
32660;DHT22;19064;47.912;12.308;2023-05-13T14:06:50;14.50;99.90
32660;DHT22;19064;47.912;12.308;2023-05-13T14:09:18;14.50;99.90
32660;DHT22;19064;47.912;12.308;2023-05-13T14:11:45;14.60;99.90
32660;DHT22;19064;47.912;12.308;2023-05-13T14:14:12;14.60;99.90
32660;DHT22;19064;47.912;12.308;2023-05-13T14:16:42;14.70;99.90
32660;DHT22;19064;47.912;12.308;2023-05-13T14:19:25;14.90;99.90
32660;DHT22;19064;47.912;12.308;2023-05-13T14:21:53;14.90;99.90
32660;DHT22;19064;47.912;12.308;2023-05-13T14:24:21;14.80;99.90
32660;DHT22;19064;47.912;12.308;2023-05-13T14:26:49;14.90;99.90
32660;DHT22;19064;47.912;12.308;2023-05-13T14:29:18;14.90;99.90
32660;DHT22;19064;47.912;12.308;2023-05-13T14:31:47;15.10;99.90
32660;DHT22;19064;47.912;12.308;2023-05-13T14:34:15;15.20;99.90
32660;DHT22;19064;47.912;12.308;2023-05-13T14:36:50;15.10;99.90
32660;DHT22;19064;47.912;12.308;2023-05-13T14:39:19;15.20;99.90
32660;DHT22;19064;47.912;12.308;2023-05-13T14:41:50;15.30;99.90
32660;DHT22;19064;47.912;12.308;2023-05-13T14:44:21;15.50;99.90
32660;DHT22;19064;47.912;12.308;2023-05-13T14:46:49;15.60;99.90
32660;DHT22;19064;47.912;12.308;2023-05-13T14:49:17;15.60;99.90
32660;DHT22;19064;47.912;12.308;2023-05-13T14:51:50;15.70;99.90
32660;DHT22;19064;47.912;12.308;2023-05-13T14:54:18;15.90;99.90
32660;DHT22;19064;47.912;12.308;2023-05-13T14:56:46;16.00;99.90
32660;DHT22;19064;47.912;12.308;2023-05-13T14:59:14;16.20;99.90
32660;DHT22;19064;47.912;12.308;2023-05-13T15:01:42;16.20;99.90
32660;DHT22;19064;47.912;12.308;2023-05-13T15:04:10;16.30;99.90
32660;DHT22;19064;47.912;12.308;2023-05-13T15:06:38;16.40;99.90
32660;DHT22;19064;47.912;12.308;2023-05-13T15:09:07;16.40;99.90
32660;DHT22;19064;47.912;12.308;2023-05-13T15:11:35;16.30;99.90
32660;DHT22;19064;47.912;12.308;2023-05-13T15:14:04;16.10;99.90
32660;DHT22;19064;47.912;12.308;2023-05-13T15:16:31;16.00;99.90
32660;DHT22;19064;47.912;12.308;2023-05-13T15:18:57;16.00;99.90
32660;DHT22;19064;47.912;12.308;2023-05-13T15:21:24;15.90;99.90
32660;DHT22;19064;47.912;12.308;2023-05-13T15:23:51;15.90;99.90
32660;DHT22;19064;47.912;12.308;2023-05-13T15:26:19;15.80;99.90
32660;DHT22;19064;47.912;12.308;2023-05-13T15:28:46;15.80;99.90